This is the latest recevied weather packets stored in our database for station/object DC8RAI-12. If no packets are shown the sender has not sent any weather packets the latest 10 day(s).
| Time | Temp. | Humidity | Pressure | Rain* | Wind** | Luminosity | Snow |
|---|---|---|---|---|---|---|---|
| 1777953602 | 10° C | 71% | 1010.1 hPa | - | - | - | - |
| 1777952702 | 9.44° C | 74% | 1010.1 hPa | - | - | - | - |
| 1777951801 | 9.44° C | 74% | 1010.2 hPa | - | - | - | - |
| 1777950901 | 10° C | 73% | 1010.2 hPa | - | - | - | - |
| 1777950001 | 10° C | 74% | 1010.2 hPa | - | - | - | - |
| 1777949101 | 10.56° C | 72% | 1010.2 hPa | - | - | - | - |
| 1777948201 | 10.56° C | 72% | 1010.5 hPa | - | - | - | - |
| 1777947301 | 11.11° C | 70% | 1010.6 hPa | - | - | - | - |
| 1777946401 | 11.11° C | 71% | 1010.6 hPa | - | - | - | - |
| 1777945500 | 11.11° C | 71% | 1010.7 hPa | - | - | - | - |
| 1777944600 | 11.67° C | 69% | 1010.6 hPa | - | - | - | - |
| 1777943700 | 12.22° C | 70% | 1010.8 hPa | - | - | - | - |
| 1777942799 | 12.78° C | 68% | 1010.9 hPa | - | - | - | - |
| 1777941906 | 12.78° C | 68% | 1011 hPa | - | - | - | - |
| 1777941006 | 13.33° C | 68% | 1011.2 hPa | - | - | - | - |
| 1777940105 | 13.89° C | 66% | 1011.2 hPa | - | - | - | - |
| 1777939205 | 13.89° C | 67% | 1011.4 hPa | - | - | - | - |
| 1777938305 | 13.89° C | 68% | 1011.6 hPa | - | - | - | - |
| 1777937405 | 13.89° C | 67% | 1011.7 hPa | - | - | - | - |
| 1777936505 | 14.44° C | 63% | 1011.7 hPa | - | - | - | - |
| 1777935605 | 14.44° C | 63% | 1011.8 hPa | - | - | - | - |
| 1777934705 | 14.44° C | 64% | 1012 hPa | - | - | - | - |
| 1777933805 | 15° C | 62% | 1012 hPa | - | - | - | - |
| 1777932905 | 16.67° C | 56% | 1012.1 hPa | - | - | - | - |
| 1777932004 | 17.22° C | 54% | 1012.1 hPa | - | - | - | - |
* Rain since midnight (hover to see other rain measurements)
** Current wind speed in m/s (hover to see current wind gust speed)